sensor_id;sensor_type;location;lat;lon;timestamp;P1;durP1;ratioP1;P2;durP2;ratioP2
55641;SDS011;41509;53.108;6.100;2024-01-15T00:01:28;9.82;;;0.70;;
55641;SDS011;41509;53.108;6.100;2024-01-15T00:03:55;6.65;;;1.15;;
55641;SDS011;41509;53.108;6.100;2024-01-15T00:06:21;3.33;;;0.70;;
55641;SDS011;41509;53.108;6.100;2024-01-15T00:08:47;6.75;;;0.73;;
55641;SDS011;41509;53.108;6.100;2024-01-15T00:11:16;6.68;;;0.98;;
55641;SDS011;41509;53.108;6.100;2024-01-15T00:13:42;7.35;;;1.33;;
55641;SDS011;41509;53.108;6.100;2024-01-15T00:16:11;11.50;;;1.17;;
55641;SDS011;41509;53.108;6.100;2024-01-15T00:18:37;3.90;;;0.73;;
55641;SDS011;41509;53.108;6.100;2024-01-15T00:21:03;4.90;;;1.43;;
55641;SDS011;41509;53.108;6.100;2024-01-15T00:23:29;4.88;;;0.77;;
55641;SDS011;41509;53.108;6.100;2024-01-15T00:25:55;7.07;;;0.90;;
55641;SDS011;41509;53.108;6.100;2024-01-15T00:28:22;6.38;;;1.05;;
55641;SDS011;41509;53.108;6.100;2024-01-15T00:30:48;3.58;;;1.20;;
55641;SDS011;41509;53.108;6.100;2024-01-15T00:33:14;4.18;;;1.20;;
55641;SDS011;41509;53.108;6.100;2024-01-15T00:35:40;6.85;;;1.23;;
55641;SDS011;41509;53.108;6.100;2024-01-15T00:38:06;10.50;;;1.20;;
55641;SDS011;41509;53.108;6.100;2024-01-15T00:40:32;9.02;;;1.25;;
55641;SDS011;41509;53.108;6.100;2024-01-15T00:43:01;9.30;;;2.33;;
55641;SDS011;41509;53.108;6.100;2024-01-15T00:45:27;10.02;;;1.52;;
55641;SDS011;41509;53.108;6.100;2024-01-15T00:47:54;9.95;;;1.92;;
55641;SDS011;41509;53.108;6.100;2024-01-15T00:50:24;8.63;;;1.90;;
55641;SDS011;41509;53.108;6.100;2024-01-15T00:52:50;6.80;;;0.90;;
55641;SDS011;41509;53.108;6.100;2024-01-15T00:55:15;5.53;;;0.63;;
55641;SDS011;41509;53.108;6.100;2024-01-15T00:57:41;4.07;;;0.70;;
55641;SDS011;41509;53.108;6.100;2024-01-15T01:00:06;1.80;;;0.40;;
55641;SDS011;41509;53.108;6.100;2024-01-15T01:02:34;3.72;;;0.63;;
55641;SDS011;41509;53.108;6.100;2024-01-15T01:05:00;7.00;;;0.38;;
55641;SDS011;41509;53.108;6.100;2024-01-15T01:07:25;2.90;;;0.40;;
55641;SDS011;41509;53.108;6.100;2024-01-15T01:09:51;2.00;;;0.23;;
55641;SDS011;41509;53.108;6.100;2024-01-15T01:12:16;3.87;;;0.70;;
55641;SDS011;41509;53.108;6.100;2024-01-15T01:14:42;4.00;;;0.43;;
55641;SDS011;41509;53.108;6.100;2024-01-15T01:17:10;2.50;;;0.40;;
55641;SDS011;41509;53.108;6.100;2024-01-15T01:19:36;1.40;;;0.33;;
55641;SDS011;41509;53.108;6.100;2024-01-15T01:22:05;0.55;;;0.17;;
55641;SDS011;41509;53.108;6.100;2024-01-15T01:24:30;4.53;;;0.90;;
55641;SDS011;41509;53.108;6.100;2024-01-15T01:26:56;5.40;;;0.80;;
55641;SDS011;41509;53.108;6.100;2024-01-15T01:29:22;6.90;;;0.50;;
55641;SDS011;41509;53.108;6.100;2024-01-15T01:31:51;4.47;;;0.50;;
55641;SDS011;41509;53.108;6.100;2024-01-15T01:34:16;2.37;;;0.50;;
55641;SDS011;41509;53.108;6.100;2024-01-15T01:36:45;4.53;;;0.60;;
55641;SDS011;41509;53.108;6.100;2024-01-15T01:39:10;3.00;;;0.53;;
55641;SDS011;41509;53.108;6.100;2024-01-15T01:41:37;5.40;;;0.60;;
55641;SDS011;41509;53.108;6.100;2024-01-15T01:44:06;2.83;;;0.73;;
55641;SDS011;41509;53.108;6.100;2024-01-15T01:46:32;7.10;;;0.90;;
55641;SDS011;41509;53.108;6.100;2024-01-15T01:49:01;2.17;;;0.80;;
55641;SDS011;41509;53.108;6.100;2024-01-15T01:51:30;4.65;;;1.08;;
55641;SDS011;41509;53.108;6.100;2024-01-15T01:53:56;6.88;;;0.93;;
55641;SDS011;41509;53.108;6.100;2024-01-15T01:56:22;12.00;;;0.83;;
55641;SDS011;41509;53.108;6.100;2024-01-15T01:58:48;10.87;;;1.63;;
55641;SDS011;41509;53.108;6.100;2024-01-15T02:01:16;7.63;;;1.00;;
55641;SDS011;41509;53.108;6.100;2024-01-15T02:03:42;13.82;;;1.40;;
55641;SDS011;41509;53.108;6.100;2024-01-15T02:06:08;9.03;;;1.20;;
55641;SDS011;41509;53.108;6.100;2024-01-15T02:08:37;9.73;;;1.75;;
55641;SDS011;41509;53.108;6.100;2024-01-15T02:11:03;9.30;;;1.38;;
55641;SDS011;41509;53.108;6.100;2024-01-15T02:13:29;8.63;;;1.70;;
55641;SDS011;41509;53.108;6.100;2024-01-15T02:15:54;12.40;;;2.00;;
55641;SDS011;41509;53.108;6.100;2024-01-15T02:18:20;12.80;;;1.60;;
55641;SDS011;41509;53.108;6.100;2024-01-15T02:20:46;9.40;;;1.33;;
55641;SDS011;41509;53.108;6.100;2024-01-15T02:23:15;14.13;;;2.17;;
55641;SDS011;41509;53.108;6.100;2024-01-15T02:25:44;9.32;;;1.30;;
55641;SDS011;41509;53.108;6.100;2024-01-15T02:28:14;9.55;;;1.17;;
55641;SDS011;41509;53.108;6.100;2024-01-15T02:30:41;15.85;;;1.65;;
55641;SDS011;41509;53.108;6.100;2024-01-15T02:33:07;10.20;;;1.70;;
55641;SDS011;41509;53.108;6.100;2024-01-15T02:35:34;6.25;;;1.58;;
55641;SDS011;41509;53.108;6.100;2024-01-15T02:38:03;11.70;;;2.13;;
55641;SDS011;41509;53.108;6.100;2024-01-15T02:42:55;7.13;;;1.52;;
55641;SDS011;41509;53.108;6.100;2024-01-15T02:45:21;6.13;;;1.17;;
55641;SDS011;41509;53.108;6.100;2024-01-15T02:47:47;8.65;;;1.73;;
55641;SDS011;41509;53.108;6.100;2024-01-15T02:50:15;13.15;;;2.28;;
55641;SDS011;41509;53.108;6.100;2024-01-15T02:52:44;21.53;;;2.03;;
55641;SDS011;41509;53.108;6.100;2024-01-15T02:55:09;10.65;;;2.10;;
55641;SDS011;41509;53.108;6.100;2024-01-15T02:57:35;8.97;;;1.70;;
55641;SDS011;41509;53.108;6.100;2024-01-15T03:00:00;8.33;;;1.63;;
55641;SDS011;41509;53.108;6.100;2024-01-15T03:02:27;9.50;;;1.70;;
55641;SDS011;41509;53.108;6.100;2024-01-15T03:04:52;15.27;;;1.70;;
55641;SDS011;41509;53.108;6.100;2024-01-15T03:07:20;10.83;;;1.93;;
55641;SDS011;41509;53.108;6.100;2024-01-15T03:09:46;8.35;;;1.13;;
55641;SDS011;41509;53.108;6.100;2024-01-15T03:12:12;7.43;;;0.93;;
55641;SDS011;41509;53.108;6.100;2024-01-15T03:14:40;3.10;;;0.70;;
55641;SDS011;41509;53.108;6.100;2024-01-15T03:17:06;6.60;;;1.27;;
55641;SDS011;41509;53.108;6.100;2024-01-15T03:19:34;9.93;;;0.65;;
55641;SDS011;41509;53.108;6.100;2024-01-15T03:22:00;3.42;;;0.57;;
55641;SDS011;41509;53.108;6.100;2024-01-15T03:24:27;6.70;;;1.00;;
55641;SDS011;41509;53.108;6.100;2024-01-15T03:26:53;2.97;;;0.73;;
55641;SDS011;41509;53.108;6.100;2024-01-15T03:29:19;3.20;;;1.10;;
55641;SDS011;41509;53.108;6.100;2024-01-15T03:31:44;9.40;;;0.87;;
55641;SDS011;41509;53.108;6.100;2024-01-15T03:34:10;3.97;;;0.83;;
55641;SDS011;41509;53.108;6.100;2024-01-15T03:36:36;8.45;;;0.80;;
55641;SDS011;41509;53.108;6.100;2024-01-15T03:39:01;7.50;;;1.30;;
55641;SDS011;41509;53.108;6.100;2024-01-15T03:41:27;5.03;;;0.80;;
55641;SDS011;41509;53.108;6.100;2024-01-15T03:43:53;6.03;;;1.43;;
55641;SDS011;41509;53.108;6.100;2024-01-15T03:46:18;16.33;;;1.33;;
55641;SDS011;41509;53.108;6.100;2024-01-15T03:48:46;24.17;;;2.08;;
55641;SDS011;41509;53.108;6.100;2024-01-15T03:51:12;10.37;;;1.40;;
55641;SDS011;41509;53.108;6.100;2024-01-15T03:53:38;8.00;;;1.50;;
55641;SDS011;41509;53.108;6.100;2024-01-15T03:56:04;10.00;;;1.67;;
55641;SDS011;41509;53.108;6.100;2024-01-15T03:58:29;3.33;;;0.90;;
55641;SDS011;41509;53.108;6.100;2024-01-15T04:00:55;5.20;;;0.70;;
55641;SDS011;41509;53.108;6.100;2024-01-15T04:03:21;10.00;;;1.00;;
55641;SDS011;41509;53.108;6.100;2024-01-15T04:05:48;3.22;;;0.82;;
55641;SDS011;41509;53.108;6.100;2024-01-15T04:08:14;3.27;;;0.70;;
55641;SDS011;41509;53.108;6.100;2024-01-15T04:10:40;5.50;;;0.50;;
55641;SDS011;41509;53.108;6.100;2024-01-15T04:13:05;5.53;;;0.90;;
55641;SDS011;41509;53.108;6.100;2024-01-15T04:15:31;2.50;;;0.30;;
55641;SDS011;41509;53.108;6.100;2024-01-15T04:17:56;5.33;;;0.47;;
55641;SDS011;41509;53.108;6.100;2024-01-15T04:20:24;3.87;;;0.47;;
55641;SDS011;41509;53.108;6.100;2024-01-15T04:22:51;2.13;;;0.40;;
55641;SDS011;41509;53.108;6.100;2024-01-15T04:25:17;5.07;;;0.57;;
55641;SDS011;41509;53.108;6.100;2024-01-15T04:27:42;4.73;;;0.30;;
55641;SDS011;41509;53.108;6.100;2024-01-15T04:30:11;5.63;;;0.70;;
55641;SDS011;41509;53.108;6.100;2024-01-15T04:32:39;4.05;;;0.47;;
55641;SDS011;41509;53.108;6.100;2024-01-15T04:35:07;8.73;;;0.85;;
55641;SDS011;41509;53.108;6.100;2024-01-15T04:37:33;7.60;;;0.97;;
55641;SDS011;41509;53.108;6.100;2024-01-15T04:39:59;2.27;;;0.43;;
55641;SDS011;41509;53.108;6.100;2024-01-15T04:42:24;4.93;;;0.80;;
55641;SDS011;41509;53.108;6.100;2024-01-15T04:44:50;5.27;;;0.80;;
55641;SDS011;41509;53.108;6.100;2024-01-15T04:47:16;3.05;;;1.02;;
55641;SDS011;41509;53.108;6.100;2024-01-15T04:49:42;8.30;;;0.73;;
55641;SDS011;41509;53.108;6.100;2024-01-15T04:52:07;8.73;;;0.80;;
55641;SDS011;41509;53.108;6.100;2024-01-15T04:54:35;4.57;;;1.20;;
55641;SDS011;41509;53.108;6.100;2024-01-15T04:57:01;2.88;;;0.70;;
55641;SDS011;41509;53.108;6.100;2024-01-15T04:59:27;3.15;;;0.85;;
55641;SDS011;41509;53.108;6.100;2024-01-15T05:01:53;3.42;;;0.88;;
55641;SDS011;41509;53.108;6.100;2024-01-15T05:04:22;2.42;;;1.05;;
55641;SDS011;41509;53.108;6.100;2024-01-15T05:06:48;1.53;;;0.47;;
55641;SDS011;41509;53.108;6.100;2024-01-15T05:09:14;11.23;;;1.25;;
55641;SDS011;41509;53.108;6.100;2024-01-15T05:11:39;5.77;;;0.90;;
55641;SDS011;41509;53.108;6.100;2024-01-15T05:14:05;14.83;;;1.33;;
55641;SDS011;41509;53.108;6.100;2024-01-15T05:16:30;5.50;;;0.87;;
55641;SDS011;41509;53.108;6.100;2024-01-15T05:18:59;5.03;;;0.63;;
55641;SDS011;41509;53.108;6.100;2024-01-15T05:21:27;8.05;;;1.40;;
55641;SDS011;41509;53.108;6.100;2024-01-15T05:23:53;7.63;;;0.93;;
55641;SDS011;41509;53.108;6.100;2024-01-15T05:26:19;3.43;;;0.80;;
55641;SDS011;41509;53.108;6.100;2024-01-15T05:28:44;6.87;;;1.17;;
55641;SDS011;41509;53.108;6.100;2024-01-15T05:31:10;10.73;;;0.93;;
55641;SDS011;41509;53.108;6.100;2024-01-15T05:33:36;3.17;;;0.98;;
55641;SDS011;41509;53.108;6.100;2024-01-15T05:36:02;3.67;;;1.25;;
55641;SDS011;41509;53.108;6.100;2024-01-15T05:38:28;6.83;;;0.97;;
55641;SDS011;41509;53.108;6.100;2024-01-15T05:40:53;7.47;;;0.97;;
55641;SDS011;41509;53.108;6.100;2024-01-15T05:43:19;10.20;;;1.00;;
55641;SDS011;41509;53.108;6.100;2024-01-15T05:45:45;9.70;;;1.77;;
55641;SDS011;41509;53.108;6.100;2024-01-15T05:48:11;4.30;;;0.97;;
55641;SDS011;41509;53.108;6.100;2024-01-15T05:50:37;12.48;;;1.75;;
55641;SDS011;41509;53.108;6.100;2024-01-15T05:55:29;14.73;;;2.35;;
55641;SDS011;41509;53.108;6.100;2024-01-15T05:57:55;8.53;;;1.10;;
55641;SDS011;41509;53.108;6.100;2024-01-15T06:00:21;8.03;;;1.37;;
55641;SDS011;41509;53.108;6.100;2024-01-15T06:02:46;9.97;;;1.40;;
55641;SDS011;41509;53.108;6.100;2024-01-15T06:05:12;8.10;;;1.50;;
55641;SDS011;41509;53.108;6.100;2024-01-15T06:07:38;9.47;;;1.53;;
55641;SDS011;41509;53.108;6.100;2024-01-15T06:10:03;8.80;;;1.57;;
55641;SDS011;41509;53.108;6.100;2024-01-15T06:12:29;11.88;;;2.45;;
55641;SDS011;41509;53.108;6.100;2024-01-15T06:14:56;13.73;;;2.28;;
55641;SDS011;41509;53.108;6.100;2024-01-15T06:17:21;6.40;;;1.50;;
55641;SDS011;41509;53.108;6.100;2024-01-15T06:19:47;7.67;;;2.10;;
55641;SDS011;41509;53.108;6.100;2024-01-15T06:22:13;12.87;;;1.83;;
55641;SDS011;41509;53.108;6.100;2024-01-15T06:24:38;10.07;;;1.80;;
55641;SDS011;41509;53.108;6.100;2024-01-15T06:27:06;8.20;;;1.37;;
55641;SDS011;41509;53.108;6.100;2024-01-15T06:29:32;13.35;;;1.60;;
55641;SDS011;41509;53.108;6.100;2024-01-15T06:31:58;7.17;;;1.20;;
55641;SDS011;41509;53.108;6.100;2024-01-15T06:34:23;10.27;;;1.60;;
55641;SDS011;41509;53.108;6.100;2024-01-15T06:36:49;10.57;;;1.50;;
55641;SDS011;41509;53.108;6.100;2024-01-15T06:39:14;8.63;;;1.47;;
55641;SDS011;41509;53.108;6.100;2024-01-15T06:41:42;7.30;;;1.87;;
55641;SDS011;41509;53.108;6.100;2024-01-15T06:44:12;6.30;;;1.27;;
55641;SDS011;41509;53.108;6.100;2024-01-15T06:46:59;7.55;;;1.30;;
55641;SDS011;41509;53.108;6.100;2024-01-15T06:49:28;7.65;;;1.00;;
55641;SDS011;41509;53.108;6.100;2024-01-15T06:51:54;5.55;;;1.17;;
55641;SDS011;41509;53.108;6.100;2024-01-15T06:54:20;6.60;;;1.08;;
55641;SDS011;41509;53.108;6.100;2024-01-15T06:56:46;7.10;;;0.97;;
55641;SDS011;41509;53.108;6.100;2024-01-15T06:59:14;8.82;;;1.52;;
55641;SDS011;41509;53.108;6.100;2024-01-15T07:01:42;3.47;;;1.23;;
55641;SDS011;41509;53.108;6.100;2024-01-15T07:04:07;12.97;;;2.23;;
55641;SDS011;41509;53.108;6.100;2024-01-15T07:06:33;6.63;;;2.37;;
55641;SDS011;41509;53.108;6.100;2024-01-15T07:08:58;5.23;;;1.77;;
55641;SDS011;41509;53.108;6.100;2024-01-15T07:11:24;9.25;;;1.67;;
55641;SDS011;41509;53.108;6.100;2024-01-15T07:13:50;5.60;;;1.47;;
55641;SDS011;41509;53.108;6.100;2024-01-15T07:16:16;6.50;;;2.00;;
55641;SDS011;41509;53.108;6.100;2024-01-15T07:18:44;7.43;;;1.23;;
55641;SDS011;41509;53.108;6.100;2024-01-15T07:21:10;6.60;;;1.60;;
55641;SDS011;41509;53.108;6.100;2024-01-15T07:23:35;7.80;;;1.50;;
55641;SDS011;41509;53.108;6.100;2024-01-15T07:26:01;5.03;;;1.33;;
55641;SDS011;41509;53.108;6.100;2024-01-15T07:28:30;3.78;;;1.02;;
55641;SDS011;41509;53.108;6.100;2024-01-15T07:30:56;8.68;;;1.05;;
55641;SDS011;41509;53.108;6.100;2024-01-15T07:33:22;15.32;;;1.75;;
55641;SDS011;41509;53.108;6.100;2024-01-15T07:35:47;11.73;;;1.53;;
55641;SDS011;41509;53.108;6.100;2024-01-15T07:38:13;7.87;;;1.13;;
55641;SDS011;41509;53.108;6.100;2024-01-15T07:40:39;8.30;;;1.00;;
55641;SDS011;41509;53.108;6.100;2024-01-15T07:43:07;6.07;;;1.00;;
55641;SDS011;41509;53.108;6.100;2024-01-15T07:45:33;7.10;;;1.90;;
55641;SDS011;41509;53.108;6.100;2024-01-15T07:47:58;6.20;;;0.97;;
55641;SDS011;41509;53.108;6.100;2024-01-15T07:50:24;11.63;;;1.20;;
55641;SDS011;41509;53.108;6.100;2024-01-15T07:52:50;11.23;;;1.30;;
55641;SDS011;41509;53.108;6.100;2024-01-15T07:55:15;7.67;;;1.23;;
55641;SDS011;41509;53.108;6.100;2024-01-15T07:57:41;9.27;;;1.43;;
55641;SDS011;41509;53.108;6.100;2024-01-15T08:00:06;8.60;;;2.27;;
55641;SDS011;41509;53.108;6.100;2024-01-15T08:02:34;8.40;;;1.42;;
55641;SDS011;41509;53.108;6.100;2024-01-15T08:04:59;6.27;;;1.33;;
55641;SDS011;41509;53.108;6.100;2024-01-15T08:07:25;9.63;;;0.97;;
55641;SDS011;41509;53.108;6.100;2024-01-15T08:09:51;2.63;;;0.50;;
55641;SDS011;41509;53.108;6.100;2024-01-15T08:12:18;6.65;;;2.05;;
55641;SDS011;41509;53.108;6.100;2024-01-15T08:14:43;6.63;;;0.70;;
55641;SDS011;41509;53.108;6.100;2024-01-15T08:19:35;4.57;;;0.93;;
55641;SDS011;41509;53.108;6.100;2024-01-15T08:22:01;4.27;;;1.07;;
55641;SDS011;41509;53.108;6.100;2024-01-15T08:24:27;5.73;;;0.80;;
55641;SDS011;41509;53.108;6.100;2024-01-15T08:26:53;9.65;;;1.23;;
55641;SDS011;41509;53.108;6.100;2024-01-15T08:29:19;2.97;;;0.97;;
55641;SDS011;41509;53.108;6.100;2024-01-15T08:34:12;4.00;;;0.50;;
55641;SDS011;41509;53.108;6.100;2024-01-15T08:36:37;7.80;;;0.80;;
55641;SDS011;41509;53.108;6.100;2024-01-15T08:39:03;0.90;;;0.50;;
55641;SDS011;41509;53.108;6.100;2024-01-15T08:41:30;2.08;;;0.73;;
55641;SDS011;41509;53.108;6.100;2024-01-15T08:43:57;8.80;;;0.90;;
55641;SDS011;41509;53.108;6.100;2024-01-15T08:46:23;2.87;;;0.40;;
55641;SDS011;41509;53.108;6.100;2024-01-15T08:48:49;2.65;;;0.90;;
55641;SDS011;41509;53.108;6.100;2024-01-15T08:51:15;6.17;;;2.00;;
55641;SDS011;41509;53.108;6.100;2024-01-15T08:53:40;6.67;;;1.87;;
55641;SDS011;41509;53.108;6.100;2024-01-15T08:56:06;6.20;;;1.47;;
55641;SDS011;41509;53.108;6.100;2024-01-15T08:58:33;5.22;;;1.10;;
55641;SDS011;41509;53.108;6.100;2024-01-15T09:00:59;9.48;;;0.90;;
55641;SDS011;41509;53.108;6.100;2024-01-15T09:03:25;9.33;;;1.47;;
55641;SDS011;41509;53.108;6.100;2024-01-15T09:05:51;5.57;;;0.70;;
55641;SDS011;41509;53.108;6.100;2024-01-15T09:08:16;5.53;;;1.00;;
55641;SDS011;41509;53.108;6.100;2024-01-15T09:10:42;2.63;;;0.60;;
55641;SDS011;41509;53.108;6.100;2024-01-15T09:13:08;6.93;;;0.80;;
55641;SDS011;41509;53.108;6.100;2024-01-15T09:15:33;5.40;;;1.27;;
55641;SDS011;41509;53.108;6.100;2024-01-15T09:17:59;6.07;;;1.23;;
55641;SDS011;41509;53.108;6.100;2024-01-15T09:20:27;7.53;;;1.38;;
55641;SDS011;41509;53.108;6.100;2024-01-15T09:22:53;9.30;;;1.38;;
55641;SDS011;41509;53.108;6.100;2024-01-15T09:25:19;9.27;;;1.47;;
55641;SDS011;41509;53.108;6.100;2024-01-15T09:27:44;4.70;;;0.90;;
55641;SDS011;41509;53.108;6.100;2024-01-15T09:30:10;3.73;;;0.70;;
55641;SDS011;41509;53.108;6.100;2024-01-15T09:32:36;6.43;;;0.88;;
55641;SDS011;41509;53.108;6.100;2024-01-15T09:35:02;8.15;;;0.82;;
55641;SDS011;41509;53.108;6.100;2024-01-15T09:37:28;4.17;;;0.93;;
55641;SDS011;41509;53.108;6.100;2024-01-15T09:39:53;5.43;;;1.70;;
55641;SDS011;41509;53.108;6.100;2024-01-15T09:42:20;6.30;;;1.75;;
55641;SDS011;41509;53.108;6.100;2024-01-15T09:44:49;3.22;;;1.00;;
55641;SDS011;41509;53.108;6.100;2024-01-15T09:47:14;4.93;;;1.13;;
55641;SDS011;41509;53.108;6.100;2024-01-15T09:52:07;6.63;;;1.10;;
55641;SDS011;41509;53.108;6.100;2024-01-15T09:54:34;5.88;;;1.65;;
55641;SDS011;41509;53.108;6.100;2024-01-15T09:57:00;8.27;;;0.80;;
55641;SDS011;41509;53.108;6.100;2024-01-15T09:59:26;6.70;;;0.93;;
55641;SDS011;41509;53.108;6.100;2024-01-15T10:01:53;4.53;;;0.57;;
55641;SDS011;41509;53.108;6.100;2024-01-15T10:04:19;4.45;;;0.93;;
55641;SDS011;41509;53.108;6.100;2024-01-15T10:06:45;9.67;;;1.37;;
55641;SDS011;41509;53.108;6.100;2024-01-15T10:09:12;4.03;;;0.50;;
55641;SDS011;41509;53.108;6.100;2024-01-15T10:11:42;4.93;;;0.50;;
55641;SDS011;41509;53.108;6.100;2024-01-15T10:14:09;7.05;;;0.98;;
55641;SDS011;41509;53.108;6.100;2024-01-15T10:16:37;6.90;;;0.75;;
55641;SDS011;41509;53.108;6.100;2024-01-15T10:21:31;2.28;;;0.60;;
55641;SDS011;41509;53.108;6.100;2024-01-15T10:23:59;4.00;;;0.68;;
55641;SDS011;41509;53.108;6.100;2024-01-15T10:26:25;6.38;;;0.77;;
55641;SDS011;41509;53.108;6.100;2024-01-15T10:28:51;4.70;;;0.50;;
55641;SDS011;41509;53.108;6.100;2024-01-15T10:31:19;4.55;;;0.70;;
55641;SDS011;41509;53.108;6.100;2024-01-15T10:33:47;3.90;;;0.80;;
55641;SDS011;41509;53.108;6.100;2024-01-15T10:36:14;4.90;;;0.60;;
55641;SDS011;41509;53.108;6.100;2024-01-15T10:38:41;3.85;;;0.50;;
55641;SDS011;41509;53.108;6.100;2024-01-15T10:41:10;2.95;;;0.70;;
55641;SDS011;41509;53.108;6.100;2024-01-15T10:43:37;4.32;;;0.52;;
55641;SDS011;41509;53.108;6.100;2024-01-15T10:46:02;1.70;;;0.37;;
55641;SDS011;41509;53.108;6.100;2024-01-15T10:48:28;4.47;;;0.95;;
55641;SDS011;41509;53.108;6.100;2024-01-15T10:50:56;6.43;;;0.80;;
55641;SDS011;41509;53.108;6.100;2024-01-15T10:53:22;2.80;;;0.52;;
55641;SDS011;41509;53.108;6.100;2024-01-15T10:55:50;1.60;;;0.60;;
55641;SDS011;41509;53.108;6.100;2024-01-15T10:58:16;5.10;;;1.00;;
55641;SDS011;41509;53.108;6.100;2024-01-15T11:03:09;5.28;;;0.93;;
55641;SDS011;41509;53.108;6.100;2024-01-15T11:05:38;6.05;;;0.90;;
55641;SDS011;41509;53.108;6.100;2024-01-15T11:08:07;6.25;;;0.75;;
55641;SDS011;41509;53.108;6.100;2024-01-15T11:10:43;4.97;;;1.08;;
55641;SDS011;41509;53.108;6.100;2024-01-15T11:18:23;5.97;;;0.70;;
55641;SDS011;41509;53.108;6.100;2024-01-15T11:23:43;2.65;;;0.47;;
55641;SDS011;41509;53.108;6.100;2024-01-15T11:29:06;1.20;;;0.43;;
55641;SDS011;41509;53.108;6.100;2024-01-15T11:34:09;2.95;;;0.55;;
55641;SDS011;41509;53.108;6.100;2024-01-15T11:44:24;7.75;;;1.23;;
55641;SDS011;41509;53.108;6.100;2024-01-15T11:49:27;5.63;;;0.60;;
55641;SDS011;41509;53.108;6.100;2024-01-15T11:52:17;5.82;;;0.80;;
55641;SDS011;41509;53.108;6.100;2024-01-15T11:57:18;2.05;;;0.60;;
55641;SDS011;41509;53.108;6.100;2024-01-15T12:00:10;4.85;;;0.68;;
55641;SDS011;41509;53.108;6.100;2024-01-15T12:02:38;8.68;;;0.93;;
55641;SDS011;41509;53.108;6.100;2024-01-15T12:05:08;3.95;;;0.80;;
55641;SDS011;41509;53.108;6.100;2024-01-15T12:07:34;4.72;;;0.68;;
55641;SDS011;41509;53.108;6.100;2024-01-15T12:10:00;5.73;;;1.20;;
55641;SDS011;41509;53.108;6.100;2024-01-15T12:15:11;10.02;;;1.08;;
55641;SDS011;41509;53.108;6.100;2024-01-15T12:17:36;5.23;;;0.80;;
55641;SDS011;41509;53.108;6.100;2024-01-15T12:20:06;6.28;;;1.10;;
55641;SDS011;41509;53.108;6.100;2024-01-15T12:22:32;7.05;;;0.93;;
55641;SDS011;41509;53.108;6.100;2024-01-15T12:24:58;4.60;;;0.52;;
55641;SDS011;41509;53.108;6.100;2024-01-15T12:27:23;7.50;;;0.70;;
55641;SDS011;41509;53.108;6.100;2024-01-15T12:29:50;5.22;;;0.82;;
55641;SDS011;41509;53.108;6.100;2024-01-15T12:32:15;7.37;;;0.70;;
55641;SDS011;41509;53.108;6.100;2024-01-15T12:34:41;7.13;;;0.98;;
55641;SDS011;41509;53.108;6.100;2024-01-15T12:37:08;10.00;;;1.52;;
55641;SDS011;41509;53.108;6.100;2024-01-15T12:39:34;3.57;;;0.80;;
55641;SDS011;41509;53.108;6.100;2024-01-15T12:42:01;2.75;;;0.50;;
55641;SDS011;41509;53.108;6.100;2024-01-15T12:46:53;5.78;;;0.95;;
55641;SDS011;41509;53.108;6.100;2024-01-15T12:49:19;1.53;;;0.83;;
55641;SDS011;41509;53.108;6.100;2024-01-15T12:51:51;1.80;;;0.60;;
55641;SDS011;41509;53.108;6.100;2024-01-15T12:54:22;5.70;;;0.70;;
55641;SDS011;41509;53.108;6.100;2024-01-15T12:56:49;3.67;;;1.23;;
55641;SDS011;41509;53.108;6.100;2024-01-15T12:59:15;6.45;;;1.08;;
55641;SDS011;41509;53.108;6.100;2024-01-15T13:04:23;4.97;;;0.93;;
55641;SDS011;41509;53.108;6.100;2024-01-15T13:06:52;3.55;;;0.93;;
55641;SDS011;41509;53.108;6.100;2024-01-15T13:09:18;3.58;;;1.10;;
55641;SDS011;41509;53.108;6.100;2024-01-15T13:11:44;3.97;;;1.13;;
55641;SDS011;41509;53.108;6.100;2024-01-15T13:14:13;11.25;;;1.25;;
55641;SDS011;41509;53.108;6.100;2024-01-15T13:16:42;5.18;;;0.60;;
55641;SDS011;41509;53.108;6.100;2024-01-15T13:19:10;5.13;;;0.70;;
55641;SDS011;41509;53.108;6.100;2024-01-15T13:21:37;7.15;;;1.35;;
55641;SDS011;41509;53.108;6.100;2024-01-15T13:24:04;4.85;;;1.65;;
55641;SDS011;41509;53.108;6.100;2024-01-15T13:26:31;13.02;;;3.38;;
55641;SDS011;41509;53.108;6.100;2024-01-15T13:28:57;8.30;;;2.53;;
55641;SDS011;41509;53.108;6.100;2024-01-15T13:31:26;7.32;;;1.38;;
55641;SDS011;41509;53.108;6.100;2024-01-15T13:38:49;9.00;;;1.25;;
55641;SDS011;41509;53.108;6.100;2024-01-15T13:41:16;5.00;;;0.98;;
55641;SDS011;41509;53.108;6.100;2024-01-15T13:44:03;8.27;;;1.00;;
55641;SDS011;41509;53.108;6.100;2024-01-15T13:46:29;8.80;;;1.20;;
55641;SDS011;41509;53.108;6.100;2024-01-15T13:48:55;8.13;;;2.00;;
55641;SDS011;41509;53.108;6.100;2024-01-15T13:51:23;7.97;;;1.13;;
55641;SDS011;41509;53.108;6.100;2024-01-15T13:53:50;15.32;;;1.67;;
55641;SDS011;41509;53.108;6.100;2024-01-15T13:56:19;11.07;;;1.27;;
55641;SDS011;41509;53.108;6.100;2024-01-15T13:58:45;8.48;;;1.50;;
55641;SDS011;41509;53.108;6.100;2024-01-15T14:01:16;8.38;;;1.70;;
55641;SDS011;41509;53.108;6.100;2024-01-15T14:03:42;3.85;;;0.95;;
55641;SDS011;41509;53.108;6.100;2024-01-15T14:06:08;6.10;;;0.95;;
55641;SDS011;41509;53.108;6.100;2024-01-15T14:08:35;7.45;;;1.17;;
55641;SDS011;41509;53.108;6.100;2024-01-15T14:11:02;2.53;;;0.43;;
55641;SDS011;41509;53.108;6.100;2024-01-15T14:13:32;3.78;;;1.13;;
55641;SDS011;41509;53.108;6.100;2024-01-15T14:15:58;3.78;;;0.68;;
55641;SDS011;41509;53.108;6.100;2024-01-15T14:18:24;10.80;;;1.25;;
55641;SDS011;41509;53.108;6.100;2024-01-15T14:20:51;6.45;;;1.33;;
55641;SDS011;41509;53.108;6.100;2024-01-15T14:23:21;10.77;;;2.13;;
55641;SDS011;41509;53.108;6.100;2024-01-15T14:25:47;3.83;;;1.20;;
55641;SDS011;41509;53.108;6.100;2024-01-15T14:28:12;7.97;;;1.07;;
55641;SDS011;41509;53.108;6.100;2024-01-15T14:30:38;11.33;;;1.07;;
55641;SDS011;41509;53.108;6.100;2024-01-15T14:33:04;8.00;;;1.30;;
55641;SDS011;41509;53.108;6.100;2024-01-15T14:35:30;13.02;;;1.90;;
55641;SDS011;41509;53.108;6.100;2024-01-15T14:37:55;11.90;;;1.57;;
55641;SDS011;41509;53.108;6.100;2024-01-15T14:40:25;6.00;;;0.75;;
55641;SDS011;41509;53.108;6.100;2024-01-15T14:42:51;4.93;;;1.23;;
55641;SDS011;41509;53.108;6.100;2024-01-15T14:45:17;6.73;;;0.77;;
55641;SDS011;41509;53.108;6.100;2024-01-15T14:47:42;4.10;;;1.37;;
55641;SDS011;41509;53.108;6.100;2024-01-15T14:52:37;1.27;;;0.57;;
55641;SDS011;41509;53.108;6.100;2024-01-15T14:55:04;1.08;;;0.30;;
55641;SDS011;41509;53.108;6.100;2024-01-15T14:57:30;2.72;;;0.40;;
55641;SDS011;41509;53.108;6.100;2024-01-15T14:59:56;1.53;;;0.53;;
55641;SDS011;41509;53.108;6.100;2024-01-15T15:02:22;0.47;;;0.20;;
55641;SDS011;41509;53.108;6.100;2024-01-15T15:04:49;0.77;;;0.22;;
55641;SDS011;41509;53.108;6.100;2024-01-15T15:07:14;5.50;;;0.37;;
55641;SDS011;41509;53.108;6.100;2024-01-15T15:09:40;2.10;;;0.30;;
55641;SDS011;41509;53.108;6.100;2024-01-15T15:12:08;1.10;;;0.45;;
55641;SDS011;41509;53.108;6.100;2024-01-15T15:14:33;1.07;;;0.40;;
55641;SDS011;41509;53.108;6.100;2024-01-15T15:17:05;6.78;;;0.52;;
55641;SDS011;41509;53.108;6.100;2024-01-15T15:19:31;1.17;;;0.57;;
55641;SDS011;41509;53.108;6.100;2024-01-15T15:21:57;2.83;;;0.90;;
55641;SDS011;41509;53.108;6.100;2024-01-15T15:24:24;3.88;;;0.80;;
55641;SDS011;41509;53.108;6.100;2024-01-15T15:26:50;1.93;;;0.60;;
55641;SDS011;41509;53.108;6.100;2024-01-15T15:29:16;4.20;;;0.60;;
55641;SDS011;41509;53.108;6.100;2024-01-15T15:31:42;7.53;;;1.17;;
55641;SDS011;41509;53.108;6.100;2024-01-15T15:34:08;5.90;;;1.02;;
55641;SDS011;41509;53.108;6.100;2024-01-15T15:36:36;1.27;;;0.65;;
55641;SDS011;41509;53.108;6.100;2024-01-15T15:39:02;4.53;;;0.67;;
55641;SDS011;41509;53.108;6.100;2024-01-15T15:41:28;7.07;;;1.07;;